createdAt,value
2018-07-31T00:00:20.729Z,4.63
2018-07-31T00:02:48.070Z,4.60
2018-07-31T00:05:15.545Z,4.70
2018-07-31T00:07:42.890Z,4.17
2018-07-31T00:10:10.269Z,4.33
2018-07-31T00:12:37.626Z,4.37
2018-07-31T00:15:07.644Z,4.33
2018-07-31T00:17:35.009Z,3.93
2018-07-31T00:20:02.401Z,4.37
2018-07-31T00:22:29.826Z,3.67
2018-07-31T00:24:57.181Z,3.73
2018-07-31T00:27:24.541Z,3.80
2018-07-31T00:29:51.885Z,4.60
2018-07-31T00:32:19.222Z,4.20
2018-07-31T00:34:46.574Z,4.70
2018-07-31T00:37:13.909Z,3.67
2018-07-31T00:39:41.233Z,4.27
2018-07-31T00:42:08.578Z,5.03
2018-07-31T00:44:35.924Z,5.10
2018-07-31T00:47:03.295Z,4.17
2018-07-31T00:49:30.637Z,4.93
2018-07-31T00:51:57.985Z,4.30
2018-07-31T00:54:25.318Z,4.30
2018-07-31T00:56:52.660Z,4.40
2018-07-31T00:59:20.006Z,4.80
2018-07-31T01:01:47.354Z,5.00
2018-07-31T01:04:14.697Z,4.60
2018-07-31T01:06:43.210Z,5.07
2018-07-31T01:09:11.861Z,4.57
2018-07-31T01:11:39.553Z,4.07
2018-07-31T01:14:07.927Z,4.50
2018-07-31T01:16:35.805Z,5.43
2018-07-31T01:19:03.406Z,4.00
2018-07-31T01:21:30.782Z,4.30
2018-07-31T01:23:58.121Z,5.77
2018-07-31T01:26:25.481Z,4.57
2018-07-31T01:28:52.840Z,3.90
2018-07-31T01:31:20.417Z,4.23
2018-07-31T01:33:47.776Z,4.13
2018-07-31T01:36:15.169Z,5.00
2018-07-31T01:38:42.512Z,5.27
2018-07-31T01:41:09.849Z,5.27
2018-07-31T01:43:37.245Z,4.43
2018-07-31T01:46:04.628Z,5.03
2018-07-31T01:48:31.973Z,4.40
2018-07-31T01:50:59.321Z,4.43
2018-07-31T01:53:26.632Z,4.53
2018-07-31T01:55:53.977Z,4.90
2018-07-31T01:58:21.341Z,4.63
2018-07-31T02:00:48.673Z,5.00
2018-07-31T02:03:16.049Z,4.70
2018-07-31T02:05:43.493Z,4.77
2018-07-31T02:08:10.849Z,4.73
2018-07-31T02:10:38.605Z,4.53
2018-07-31T02:13:06.082Z,4.83
2018-07-31T02:15:33.421Z,4.60
2018-07-31T02:18:00.762Z,3.80
2018-07-31T02:20:28.113Z,4.77
2018-07-31T02:22:55.477Z,4.20
2018-07-31T02:25:22.850Z,4.30
2018-07-31T02:27:50.203Z,4.70
2018-07-31T02:30:21.313Z,4.57
2018-07-31T02:32:49.429Z,5.33
2018-07-31T02:35:16.802Z,4.07
2018-07-31T02:37:44.337Z,4.83
2018-07-31T02:40:11.754Z,5.17
2018-07-31T02:42:39.105Z,5.47
2018-07-31T02:45:08.510Z,5.03
2018-07-31T02:47:35.933Z,4.53
2018-07-31T02:50:03.761Z,5.50
2018-07-31T02:52:31.094Z,4.93
2018-07-31T02:54:58.449Z,4.50
2018-07-31T02:57:25.809Z,4.40
2018-07-31T02:59:53.142Z,4.80
2018-07-31T03:02:20.499Z,4.70
2018-07-31T03:04:47.857Z,4.50
2018-07-31T03:07:15.193Z,5.40
2018-07-31T03:09:42.549Z,4.97
2018-07-31T03:12:09.893Z,4.50
2018-07-31T03:14:37.227Z,4.63
2018-07-31T03:17:04.605Z,4.53
2018-07-31T03:19:31.945Z,3.93
2018-07-31T03:21:59.310Z,4.40
2018-07-31T03:24:26.662Z,4.80
2018-07-31T03:26:54.056Z,4.70
2018-07-31T03:29:23.853Z,5.17
2018-07-31T03:31:51.261Z,3.90
2018-07-31T03:34:18.633Z,4.70
2018-07-31T03:36:45.977Z,5.37
2018-07-31T03:39:13.366Z,5.93
2018-07-31T03:41:40.721Z,4.50
2018-07-31T03:44:08.125Z,3.97
2018-07-31T03:46:35.487Z,5.60
2018-07-31T03:49:02.877Z,4.87
2018-07-31T03:51:30.232Z,5.50
2018-07-31T03:53:57.606Z,5.60
2018-07-31T03:56:24.971Z,5.93
2018-07-31T03:58:52.283Z,5.47
2018-07-31T04:01:19.621Z,4.67
2018-07-31T04:03:46.973Z,5.30
2018-07-31T04:06:14.305Z,4.53
2018-07-31T04:08:41.694Z,4.67
2018-07-31T04:11:09.085Z,5.30
2018-07-31T04:13:36.494Z,4.63
2018-07-31T04:16:03.876Z,5.70
2018-07-31T04:18:31.245Z,5.57
2018-07-31T04:20:58.585Z,5.90
2018-07-31T04:23:25.945Z,5.30
2018-07-31T04:25:53.292Z,5.20
2018-07-31T04:28:20.637Z,5.33
2018-07-31T04:30:47.977Z,5.43
2018-07-31T04:33:15.313Z,6.20
2018-07-31T04:35:42.664Z,5.43
2018-07-31T04:38:10.009Z,5.33
2018-07-31T04:40:37.385Z,5.20
2018-07-31T04:43:04.725Z,5.60
2018-07-31T04:45:32.077Z,5.07
2018-07-31T04:47:59.444Z,5.37
2018-07-31T04:50:26.866Z,5.17
2018-07-31T04:52:54.157Z,4.70
2018-07-31T04:55:21.533Z,5.30
2018-07-31T04:57:48.887Z,5.80
2018-07-31T05:00:16.334Z,6.80
2018-07-31T05:02:43.722Z,5.80
2018-07-31T05:05:11.099Z,5.10
2018-07-31T05:07:39.149Z,5.47
2018-07-31T05:10:09.178Z,5.10
2018-07-31T05:12:36.546Z,5.57
2018-07-31T05:15:04.540Z,5.00
2018-07-31T05:17:31.959Z,6.40
2018-07-31T05:19:59.231Z,5.70
2018-07-31T05:22:26.639Z,5.63
2018-07-31T05:24:54.101Z,5.53
2018-07-31T05:27:21.437Z,6.17
2018-07-31T05:29:48.796Z,5.70
2018-07-31T05:32:16.141Z,4.83
2018-07-31T05:34:43.953Z,5.77
2018-07-31T05:37:11.323Z,5.13
2018-07-31T05:39:38.678Z,5.20
2018-07-31T05:42:06.025Z,5.80
2018-07-31T05:44:33.365Z,5.93
2018-07-31T05:47:00.744Z,5.83
2018-07-31T05:49:28.085Z,6.20
2018-07-31T05:51:55.463Z,5.30
2018-07-31T05:54:22.801Z,5.83
2018-07-31T05:56:50.148Z,5.63
2018-07-31T05:59:17.497Z,5.47
2018-07-31T06:01:44.869Z,5.73
2018-07-31T06:04:12.198Z,5.20
2018-07-31T06:06:39.557Z,5.60
2018-07-31T06:09:07.919Z,5.17
2018-07-31T06:11:35.488Z,5.60
2018-07-31T06:14:03.514Z,6.10
2018-07-31T06:16:30.876Z,6.30
2018-07-31T06:18:58.221Z,5.67
2018-07-31T06:21:25.569Z,6.57
2018-07-31T06:23:52.917Z,5.47
2018-07-31T06:26:20.262Z,6.33
2018-07-31T06:28:47.597Z,5.70
2018-07-31T06:31:14.957Z,6.40
2018-07-31T06:33:42.282Z,6.30
2018-07-31T06:36:09.725Z,7.10
2018-07-31T06:38:37.093Z,7.57
2018-07-31T06:41:04.468Z,6.97
2018-07-31T06:43:31.877Z,7.20
2018-07-31T06:45:59.326Z,6.90
2018-07-31T06:48:26.684Z,7.10
2018-07-31T06:50:54.074Z,7.90
2018-07-31T06:53:21.417Z,7.20
2018-07-31T06:55:48.762Z,10.30
2018-07-31T06:58:16.165Z,9.67
2018-07-31T07:00:43.754Z,8.70
2018-07-31T07:03:11.093Z,9.60
2018-07-31T07:05:38.474Z,8.90
2018-07-31T07:08:05.809Z,8.00
2018-07-31T07:10:33.169Z,7.53
2018-07-31T07:13:00.561Z,7.10
2018-07-31T07:15:27.928Z,7.63
2018-07-31T07:17:55.257Z,5.80
2018-07-31T07:20:22.661Z,6.00
2018-07-31T07:22:49.995Z,5.23
2018-07-31T07:25:17.349Z,5.70
2018-07-31T07:27:44.698Z,5.73
2018-07-31T07:30:12.037Z,5.70
2018-07-31T07:32:39.374Z,4.90
2018-07-31T07:35:06.749Z,5.10
2018-07-31T07:37:34.143Z,5.50
2018-07-31T07:40:01.534Z,4.60
2018-07-31T07:42:28.893Z,4.43
2018-07-31T07:44:56.245Z,5.03
2018-07-31T07:47:23.590Z,4.13
2018-07-31T07:49:50.997Z,4.50
2018-07-31T07:52:18.344Z,4.10
2018-07-31T07:54:45.665Z,4.57
2018-07-31T07:57:13.025Z,4.40
2018-07-31T07:59:40.377Z,3.70
2018-07-31T08:02:07.753Z,4.10
2018-07-31T08:04:35.127Z,4.20
2018-07-31T08:07:02.441Z,4.47
2018-07-31T08:09:29.793Z,4.20
2018-07-31T08:11:57.395Z,3.83
2018-07-31T08:14:24.730Z,4.03
2018-07-31T08:16:52.081Z,4.23
2018-07-31T08:19:19.449Z,4.53
2018-07-31T08:21:46.786Z,4.10
2018-07-31T08:24:14.133Z,4.47
2018-07-31T08:26:41.501Z,3.80
2018-07-31T08:29:08.833Z,4.83
2018-07-31T08:31:36.175Z,6.10
2018-07-31T08:34:03.557Z,6.00
2018-07-31T08:36:30.890Z,4.43
2018-07-31T08:38:58.717Z,5.00
2018-07-31T08:41:26.082Z,5.37
2018-07-31T08:43:53.409Z,6.43
2018-07-31T08:46:20.750Z,4.80
2018-07-31T08:48:48.109Z,5.87
2018-07-31T08:51:15.459Z,5.80
2018-07-31T08:53:42.806Z,5.50
2018-07-31T08:56:10.181Z,4.73
2018-07-31T08:58:37.541Z,4.50
2018-07-31T09:01:04.877Z,6.13
2018-07-31T09:03:32.225Z,4.50
2018-07-31T09:05:59.569Z,4.30
2018-07-31T09:08:26.999Z,4.07
2018-07-31T09:10:54.504Z,3.57
2018-07-31T09:13:21.858Z,3.93
2018-07-31T09:15:49.209Z,3.80
2018-07-31T09:18:16.603Z,3.93
2018-07-31T09:20:43.941Z,3.70
2018-07-31T09:23:11.290Z,4.63
2018-07-31T09:25:47.585Z,3.90
2018-07-31T09:28:16.618Z,4.13
2018-07-31T09:30:49.683Z,3.63
2018-07-31T09:33:17.037Z,5.47
2018-07-31T09:35:44.429Z,3.87
2018-07-31T09:38:11.876Z,4.00
2018-07-31T09:40:39.137Z,3.40
2018-07-31T09:43:06.486Z,5.20
2018-07-31T09:45:33.873Z,4.00
2018-07-31T09:48:01.253Z,3.60
2018-07-31T09:50:29.065Z,4.23
2018-07-31T09:52:56.413Z,3.80
2018-07-31T09:55:23.753Z,4.40
2018-07-31T09:57:51.353Z,3.90
2018-07-31T10:00:24.541Z,4.07
2018-07-31T10:02:52.736Z,3.80
2018-07-31T10:05:20.106Z,3.90
2018-07-31T10:07:47.436Z,3.87
2018-07-31T10:10:14.781Z,3.73
2018-07-31T10:12:42.125Z,3.70
2018-07-31T10:15:09.998Z,4.00
2018-07-31T10:17:37.377Z,3.73
2018-07-31T10:20:04.709Z,4.27
2018-07-31T10:22:32.059Z,3.97
2018-07-31T10:24:59.409Z,4.33
2018-07-31T10:27:26.757Z,3.70
2018-07-31T10:29:54.125Z,3.10
2018-07-31T10:32:21.489Z,3.77
2018-07-31T10:34:48.854Z,4.23
2018-07-31T10:37:16.209Z,4.17
2018-07-31T10:39:43.589Z,3.60
2018-07-31T10:42:10.933Z,3.70
2018-07-31T10:44:38.297Z,3.87
2018-07-31T10:47:05.645Z,3.20
2018-07-31T10:49:32.981Z,3.90
2018-07-31T10:52:00.492Z,3.30
2018-07-31T10:54:27.853Z,3.70
2018-07-31T10:56:55.241Z,3.47
2018-07-31T10:59:22.594Z,3.80
2018-07-31T11:01:49.941Z,3.67
2018-07-31T11:04:17.283Z,3.53
2018-07-31T11:06:44.605Z,3.93
2018-07-31T11:09:11.997Z,3.67
2018-07-31T11:11:39.928Z,3.67
2018-07-31T11:14:07.926Z,4.50
2018-07-31T11:16:35.326Z,4.23
2018-07-31T11:19:02.709Z,3.67
2018-07-31T11:21:30.145Z,4.10
2018-07-31T11:23:57.493Z,3.80
2018-07-31T11:26:24.837Z,3.40
2018-07-31T11:28:52.273Z,4.00
2018-07-31T11:31:19.617Z,3.70
2018-07-31T11:33:46.966Z,3.60
2018-07-31T11:36:14.401Z,4.13
2018-07-31T11:38:41.760Z,4.37
2018-07-31T11:41:09.194Z,3.60
2018-07-31T11:43:36.550Z,4.70
2018-07-31T11:46:03.929Z,3.33
2018-07-31T11:48:31.345Z,4.13
2018-07-31T11:50:58.689Z,4.03
2018-07-31T11:53:26.056Z,4.73
2018-07-31T11:55:53.421Z,4.30
2018-07-31T11:58:20.769Z,3.67
2018-07-31T12:00:48.093Z,4.03
2018-07-31T12:03:15.453Z,3.70
2018-07-31T12:05:42.809Z,4.30
2018-07-31T12:08:10.149Z,4.00
2018-07-31T12:10:37.513Z,5.50
2018-07-31T12:13:04.881Z,4.13
2018-07-31T12:15:32.218Z,4.20
2018-07-31T12:17:59.580Z,3.83
2018-07-31T12:20:26.945Z,3.40
2018-07-31T12:22:54.285Z,3.97
2018-07-31T12:25:21.636Z,3.40
2018-07-31T12:27:49.014Z,3.50
2018-07-31T12:30:16.357Z,3.53
2018-07-31T12:32:43.773Z,4.00
2018-07-31T12:35:11.335Z,4.57
2018-07-31T12:37:38.693Z,3.90
2018-07-31T12:40:06.361Z,3.83
2018-07-31T12:42:33.717Z,4.40
2018-07-31T12:45:01.077Z,3.70
2018-07-31T12:47:28.425Z,3.60
2018-07-31T12:49:56.145Z,3.70
2018-07-31T12:52:23.493Z,3.90
2018-07-31T12:54:50.857Z,3.67
2018-07-31T12:57:18.229Z,3.50
2018-07-31T12:59:45.573Z,4.50
2018-07-31T13:02:12.946Z,3.90
2018-07-31T13:04:40.304Z,3.97
2018-07-31T13:07:07.675Z,3.80
2018-07-31T13:09:35.053Z,4.00
2018-07-31T13:12:03.065Z,4.40
2018-07-31T13:14:30.396Z,3.60
2018-07-31T13:16:57.741Z,4.33
2018-07-31T13:19:25.101Z,3.20
2018-07-31T13:21:52.461Z,3.17
2018-07-31T13:24:19.785Z,3.30
2018-07-31T13:26:47.133Z,3.90
2018-07-31T13:29:14.486Z,4.93
2018-07-31T13:31:41.836Z,3.57
2018-07-31T13:34:09.209Z,3.77
2018-07-31T13:36:36.553Z,3.50
2018-07-31T13:39:07.315Z,3.40
2018-07-31T13:41:34.738Z,3.23
2018-07-31T13:44:02.338Z,3.00
2018-07-31T13:46:29.537Z,3.33
2018-07-31T13:48:56.885Z,3.57
2018-07-31T13:51:24.226Z,3.10
2018-07-31T13:53:51.674Z,2.60
2018-07-31T13:56:19.008Z,3.00
2018-07-31T13:58:46.357Z,4.10
2018-07-31T14:01:13.714Z,2.97
2018-07-31T14:03:41.061Z,2.70
2018-07-31T14:06:08.408Z,3.20
2018-07-31T14:08:35.757Z,4.00
2018-07-31T14:11:03.121Z,11.03
2018-07-31T14:13:30.457Z,3.80
2018-07-31T14:15:57.834Z,4.07
2018-07-31T14:18:25.221Z,3.90
2018-07-31T14:20:52.585Z,2.90
2018-07-31T14:23:20.058Z,3.67
2018-07-31T14:25:47.461Z,2.60
2018-07-31T14:28:14.817Z,3.53
2018-07-31T14:30:42.165Z,2.87
2018-07-31T14:33:09.546Z,2.80
2018-07-31T14:35:36.893Z,2.63
2018-07-31T14:38:04.241Z,2.80
2018-07-31T14:40:31.601Z,2.43
2018-07-31T14:42:59.003Z,2.77
2018-07-31T14:45:26.325Z,2.40
2018-07-31T14:47:53.685Z,3.33
2018-07-31T14:50:21.029Z,3.37
2018-07-31T14:52:48.405Z,2.30
2018-07-31T14:55:15.769Z,2.83
2018-07-31T14:57:43.145Z,3.33
2018-07-31T15:00:10.486Z,3.03
2018-07-31T15:02:37.837Z,2.90
2018-07-31T15:05:05.505Z,3.07
2018-07-31T15:07:32.854Z,2.27
2018-07-31T15:10:00.225Z,2.40
2018-07-31T15:12:27.574Z,2.67
2018-07-31T15:14:54.929Z,2.40
2018-07-31T15:17:22.250Z,2.50
2018-07-31T15:19:49.597Z,2.63
2018-07-31T15:22:16.994Z,2.60
2018-07-31T15:24:44.357Z,2.33
2018-07-31T15:27:11.691Z,3.30
2018-07-31T15:29:39.065Z,2.40
2018-07-31T15:32:06.405Z,2.93
2018-07-31T15:34:33.757Z,3.60
2018-07-31T15:37:01.129Z,2.60
2018-07-31T15:39:28.444Z,2.30
2018-07-31T15:41:55.781Z,2.50
2018-07-31T15:44:23.125Z,4.17
2018-07-31T15:46:50.474Z,3.20
2018-07-31T15:49:17.818Z,2.93
2018-07-31T15:51:45.213Z,3.10
2018-07-31T15:54:12.613Z,4.53
2018-07-31T15:56:40.001Z,5.30
2018-07-31T15:59:07.389Z,5.07
2018-07-31T16:01:34.762Z,2.10
2018-07-31T16:04:02.122Z,3.10
2018-07-31T16:06:29.622Z,4.43
2018-07-31T16:08:57.031Z,3.57
2018-07-31T16:11:24.401Z,2.97
2018-07-31T16:13:51.753Z,3.10
2018-07-31T16:16:19.114Z,2.70
2018-07-31T16:18:46.462Z,3.03
2018-07-31T16:21:13.831Z,2.27
2018-07-31T16:23:41.217Z,2.60
2018-07-31T16:26:08.606Z,2.67
2018-07-31T16:28:35.995Z,2.10
2018-07-31T16:31:03.397Z,2.23
2018-07-31T16:33:30.750Z,3.27
2018-07-31T16:35:58.113Z,5.10
2018-07-31T16:38:25.489Z,3.30
2018-07-31T16:40:52.830Z,3.17
2018-07-31T16:43:20.348Z,2.40
2018-07-31T16:45:47.709Z,2.67
2018-07-31T16:48:15.041Z,2.47
2018-07-31T16:50:42.434Z,2.40
2018-07-31T16:53:09.810Z,2.13
2018-07-31T16:55:37.129Z,2.57
2018-07-31T16:58:04.474Z,2.37
2018-07-31T17:00:31.866Z,2.53
2018-07-31T17:02:59.198Z,2.27
2018-07-31T17:05:26.549Z,3.40
2018-07-31T17:07:53.905Z,2.47
2018-07-31T17:10:21.281Z,2.60
2018-07-31T17:12:48.634Z,3.00
2018-07-31T17:15:16.001Z,3.10
2018-07-31T17:17:43.361Z,2.90
2018-07-31T17:20:14.305Z,4.80
2018-07-31T17:22:41.686Z,3.37
2018-07-31T17:25:09.082Z,1.63
2018-07-31T17:27:36.591Z,1.90
2018-07-31T17:30:04.529Z,2.57
2018-07-31T17:32:32.082Z,2.30
2018-07-31T17:34:59.811Z,1.60
2018-07-31T17:37:27.602Z,1.80
2018-07-31T17:39:55.611Z,2.10
2018-07-31T17:42:24.125Z,1.90
2018-07-31T17:44:51.982Z,1.93
2018-07-31T17:47:19.594Z,1.60
2018-07-31T17:49:47.102Z,1.73
2018-07-31T17:52:14.706Z,1.60
2018-07-31T17:54:42.278Z,1.77
2018-07-31T17:57:09.830Z,1.93
2018-07-31T17:59:37.464Z,1.50
2018-07-31T18:02:05.082Z,2.30
2018-07-31T18:04:32.869Z,1.53
2018-07-31T18:07:00.411Z,1.80
2018-07-31T18:09:27.998Z,1.80
2018-07-31T18:11:55.637Z,1.80
2018-07-31T18:14:23.362Z,2.07
2018-07-31T18:16:50.814Z,1.67
2018-07-31T18:19:18.700Z,1.60
2018-07-31T18:21:46.694Z,1.80
2018-07-31T18:24:14.541Z,2.33
2018-07-31T18:26:43.176Z,2.27
2018-07-31T18:29:10.957Z,1.93
2018-07-31T18:31:38.627Z,1.57
2018-07-31T18:34:06.198Z,1.27
2018-07-31T18:36:33.817Z,2.03
2018-07-31T18:39:01.671Z,1.37
2018-07-31T18:41:29.212Z,1.73
2018-07-31T18:43:56.746Z,2.20
2018-07-31T18:46:24.321Z,1.80
2018-07-31T18:48:51.958Z,1.47
2018-07-31T18:51:19.578Z,1.77
2018-07-31T18:53:47.142Z,2.00
2018-07-31T18:56:14.666Z,1.50
2018-07-31T18:58:42.206Z,1.87
2018-07-31T19:01:16.513Z,1.80
2018-07-31T19:03:44.018Z,1.93
2018-07-31T19:06:11.630Z,1.70
2018-07-31T19:08:39.191Z,1.53
2018-07-31T19:11:06.816Z,1.53
2018-07-31T19:13:34.338Z,2.00
2018-07-31T19:16:01.881Z,1.57
2018-07-31T19:18:29.457Z,1.63
2018-07-31T19:20:56.994Z,1.90
2018-07-31T19:23:24.554Z,2.20
2018-07-31T19:25:52.154Z,1.87
2018-07-31T19:28:19.763Z,2.37
2018-07-31T19:30:47.234Z,1.60
2018-07-31T19:33:14.929Z,1.93
2018-07-31T19:35:42.514Z,2.00
2018-07-31T19:38:10.090Z,1.97
2018-07-31T19:40:37.702Z,2.47
2018-07-31T19:43:05.315Z,2.10
2018-07-31T19:45:32.892Z,1.90
2018-07-31T19:48:02.823Z,2.13
2018-07-31T19:50:30.318Z,1.40
2018-07-31T19:52:57.965Z,1.90
2018-07-31T19:55:25.534Z,1.43
2018-07-31T19:57:53.181Z,1.93
2018-07-31T20:00:20.634Z,1.77
2018-07-31T20:02:48.170Z,2.33
2018-07-31T20:05:15.662Z,1.63
2018-07-31T20:07:43.186Z,1.87
2018-07-31T20:10:10.732Z,1.53
2018-07-31T20:12:38.327Z,2.33
2018-07-31T20:15:06.128Z,2.40
2018-07-31T20:17:33.586Z,2.47
2018-07-31T20:20:01.114Z,2.47
2018-07-31T20:22:28.653Z,1.37
2018-07-31T20:24:56.126Z,1.93
2018-07-31T20:27:23.658Z,1.95
2018-07-31T20:29:51.164Z,1.53
2018-07-31T20:32:19.839Z,1.50
2018-07-31T20:34:47.652Z,1.80
2018-07-31T20:37:15.154Z,1.60
2018-07-31T20:39:42.638Z,1.67
2018-07-31T20:42:10.322Z,1.80
2018-07-31T20:44:37.862Z,1.53
2018-07-31T20:47:05.483Z,1.50
2018-07-31T20:49:32.962Z,1.43
2018-07-31T20:52:00.538Z,1.50
2018-07-31T20:54:28.138Z,1.70
2018-07-31T20:56:55.636Z,1.60
2018-07-31T20:59:23.589Z,1.63
2018-07-31T21:01:51.131Z,1.40
2018-07-31T21:04:18.593Z,1.27
2018-07-31T21:06:46.134Z,1.23
2018-07-31T21:09:18.146Z,1.63
2018-07-31T21:11:45.703Z,1.50
2018-07-31T21:14:13.281Z,1.70
2018-07-31T21:16:40.986Z,1.30
2018-07-31T21:19:08.505Z,1.37
2018-07-31T21:21:36.019Z,1.80
2018-07-31T21:24:03.589Z,1.60
2018-07-31T21:26:31.134Z,2.20
2018-07-31T21:28:58.625Z,1.53
2018-07-31T21:31:26.142Z,1.67
2018-07-31T21:33:53.634Z,2.07
2018-07-31T21:36:21.118Z,1.20
2018-07-31T21:38:48.745Z,2.90
2018-07-31T21:41:17.271Z,1.40
2018-07-31T21:43:45.457Z,1.53
2018-07-31T21:46:13.314Z,1.20
2018-07-31T21:48:40.906Z,1.30
2018-07-31T21:51:09.051Z,1.43
2018-07-31T21:53:37.485Z,1.60
2018-07-31T21:56:07.446Z,1.73
2018-07-31T21:58:34.919Z,1.10
2018-07-31T22:01:08.361Z,1.23
2018-07-31T22:03:37.330Z,1.60
2018-07-31T22:06:06.344Z,1.20
2018-07-31T22:08:34.462Z,1.53
2018-07-31T22:11:02.157Z,1.13
2018-07-31T22:13:29.655Z,1.17
2018-07-31T22:15:57.196Z,1.43
2018-07-31T22:18:24.842Z,1.70
2018-07-31T22:20:52.379Z,1.10
2018-07-31T22:23:19.894Z,1.20
2018-07-31T22:28:21.801Z,1.27
2018-07-31T22:30:49.297Z,1.10
2018-07-31T22:33:16.830Z,1.40
2018-07-31T22:35:44.362Z,1.17
2018-07-31T22:38:11.854Z,1.60
2018-07-31T22:40:39.317Z,1.00
2018-07-31T22:43:06.839Z,1.30
2018-07-31T22:45:34.294Z,1.67
2018-07-31T22:48:01.792Z,1.87
2018-07-31T22:50:29.278Z,1.37
2018-07-31T22:52:56.746Z,1.00
2018-07-31T22:55:24.269Z,1.37
2018-07-31T22:57:51.854Z,1.33
2018-07-31T23:00:19.409Z,1.20
2018-07-31T23:02:46.942Z,1.30
2018-07-31T23:05:14.514Z,1.30
2018-07-31T23:07:42.023Z,1.60
2018-07-31T23:10:09.526Z,1.60
2018-07-31T23:12:37.005Z,1.20
2018-07-31T23:15:05.045Z,1.40
2018-07-31T23:17:32.546Z,1.47
2018-07-31T23:20:02.413Z,1.30
2018-07-31T23:22:35.637Z,1.60
2018-07-31T23:25:03.541Z,1.23
2018-07-31T23:27:30.981Z,1.57
2018-07-31T23:29:58.421Z,1.40
2018-07-31T23:32:25.958Z,1.23
2018-07-31T23:34:53.433Z,1.30
2018-07-31T23:37:21.397Z,1.20
2018-07-31T23:39:49.616Z,1.27
2018-07-31T23:42:17.806Z,1.70
2018-07-31T23:44:45.307Z,1.23
2018-07-31T23:47:12.898Z,1.20
2018-07-31T23:49:40.330Z,1.20
2018-07-31T23:52:07.865Z,1.10
2018-07-31T23:54:35.406Z,1.20
2018-07-31T23:57:02.867Z,0.90
2018-07-31T23:59:30.371Z,1.20
